createdAt,value
2022-08-25T00:00:36.715Z,17.70
2022-08-25T00:05:41.219Z,18.03
2022-08-25T00:10:44.011Z,17.40
2022-08-25T00:16:03.409Z,17.83
2022-08-25T00:21:07.842Z,17.20
2022-08-25T00:26:11.471Z,17.67
2022-08-25T00:31:20.244Z,18.00
2022-08-25T00:36:23.062Z,17.60
2022-08-25T00:41:27.242Z,18.07
2022-08-25T00:46:37.194Z,16.53
2022-08-25T00:51:52.103Z,16.73
2022-08-25T00:56:58.822Z,17.33
2022-08-25T01:02:02.659Z,18.23
2022-08-25T01:07:15.523Z,18.07
2022-08-25T01:12:21.786Z,18.50
2022-08-25T01:17:27.966Z,17.87
2022-08-25T01:22:32.379Z,18.23
2022-08-25T01:27:35.175Z,17.40
2022-08-25T01:32:37.899Z,18.03
2022-08-25T01:37:41.042Z,17.83
2022-08-25T01:42:54.120Z,17.70
2022-08-25T01:47:57.092Z,17.93
2022-08-25T01:53:11.356Z,18.77
2022-08-25T01:58:14.141Z,17.43
2022-08-25T02:03:19.077Z,17.50
2022-08-25T02:08:23.454Z,17.93
2022-08-25T02:13:26.886Z,18.13
2022-08-25T02:18:34.181Z,17.93
2022-08-25T02:23:37.034Z,17.73
2022-08-25T02:28:39.941Z,18.53
2022-08-25T02:33:42.919Z,18.10
2022-08-25T02:38:46.294Z,19.53
2022-08-25T02:43:49.747Z,18.80
2022-08-25T02:48:53.423Z,19.30
2022-08-25T02:53:57.710Z,18.53
2022-08-25T02:59:01.333Z,17.57
2022-08-25T03:04:04.691Z,18.73
2022-08-25T03:09:08.062Z,17.83
2022-08-25T03:14:11.280Z,17.27
2022-08-25T03:19:14.660Z,18.60
2022-08-25T03:24:17.481Z,18.53
2022-08-25T03:29:21.141Z,18.33
2022-08-25T03:34:24.165Z,18.27
2022-08-25T03:39:27.667Z,17.80
2022-08-25T03:44:30.462Z,17.97
2022-08-25T03:49:33.222Z,18.77
2022-08-25T03:54:37.488Z,17.77
2022-08-25T03:59:40.660Z,19.43
2022-08-25T04:04:43.452Z,18.50
2022-08-25T04:09:46.400Z,18.90
2022-08-25T04:14:49.288Z,18.20
2022-08-25T04:19:52.184Z,19.13
2022-08-25T04:24:55.017Z,18.70
2022-08-25T04:29:57.758Z,18.00
2022-08-25T04:35:00.569Z,18.87
2022-08-25T04:40:04.679Z,17.27
2022-08-25T04:45:08.017Z,17.23
2022-08-25T04:50:11.222Z,19.73
2022-08-25T04:55:14.783Z,18.27
2022-08-25T05:00:18.313Z,19.33
2022-08-25T05:05:21.002Z,18.47
2022-08-25T05:10:24.660Z,19.43
2022-08-25T05:15:47.731Z,20.20
2022-08-25T05:20:55.167Z,21.67
2022-08-25T05:26:07.361Z,24.13
2022-08-25T05:31:16.284Z,24.40
2022-08-25T05:36:20.325Z,25.00
2022-08-25T05:41:27.846Z,26.60
2022-08-25T05:46:31.939Z,25.70
2022-08-25T05:51:34.822Z,26.00
2022-08-25T05:56:37.781Z,24.23
2022-08-25T06:01:59.044Z,24.10
2022-08-25T06:07:01.791Z,28.60
2022-08-25T06:12:04.843Z,27.03
2022-08-25T06:17:10.902Z,23.57
2022-08-25T06:22:13.726Z,20.67
2022-08-25T06:27:16.497Z,18.97
2022-08-25T06:32:19.243Z,18.77
2022-08-25T06:37:25.199Z,18.33
2022-08-25T06:42:28.589Z,19.10
2022-08-25T06:47:31.391Z,19.13
2022-08-25T06:52:34.238Z,19.13
2022-08-25T06:57:37.032Z,18.37
2022-08-25T07:02:39.984Z,18.13
2022-08-25T07:07:44.975Z,16.10
2022-08-25T07:12:47.823Z,15.87
2022-08-25T07:17:50.681Z,15.83
2022-08-25T07:22:53.735Z,16.37
2022-08-25T07:27:58.842Z,15.87
2022-08-25T07:33:05.894Z,14.57
2022-08-25T07:38:13.046Z,13.77
2022-08-25T07:43:23.277Z,14.27
2022-08-25T07:48:26.086Z,14.77
2022-08-25T07:53:28.850Z,14.27
2022-08-25T07:58:31.612Z,13.87
2022-08-25T08:03:50.648Z,14.23
2022-08-25T08:08:57.937Z,13.93
2022-08-25T08:14:02.464Z,13.60
2022-08-25T08:19:06.348Z,13.13
2022-08-25T08:24:24.844Z,13.05
2022-08-25T08:29:32.758Z,11.00
2022-08-25T08:34:36.672Z,12.85
2022-08-25T08:39:39.702Z,14.30
2022-08-25T08:44:42.726Z,13.38
2022-08-25T08:50:01.291Z,13.88
2022-08-25T08:55:25.661Z,12.27
2022-08-25T09:00:29.262Z,13.75
2022-08-25T09:05:46.712Z,11.10
2022-08-25T09:11:26.477Z,10.75
2022-08-25T09:17:06.565Z,11.57
2022-08-25T09:22:35.273Z,10.95
2022-08-25T09:27:59.724Z,9.75
2022-08-25T09:33:05.353Z,10.32
2022-08-25T09:38:26.518Z,9.57
2022-08-25T09:43:44.728Z,8.75
2022-08-25T09:48:56.961Z,9.35
2022-08-25T09:54:15.824Z,8.73
2022-08-25T09:59:34.937Z,7.75
2022-08-25T10:04:40.113Z,7.80
2022-08-25T10:09:51.080Z,8.00
2022-08-25T10:14:54.431Z,8.68
2022-08-25T10:20:19.968Z,8.20
2022-08-25T10:25:31.223Z,9.50
2022-08-25T10:30:51.692Z,9.05
2022-08-25T10:36:20.329Z,8.02
2022-08-25T10:41:59.840Z,7.95
2022-08-25T10:47:41.634Z,8.60
2022-08-25T10:52:48.199Z,8.20
2022-08-25T10:58:19.893Z,8.40
2022-08-25T11:03:50.223Z,7.32
2022-08-25T11:08:59.505Z,7.38
2022-08-25T11:14:19.317Z,7.85
2022-08-25T11:19:33.796Z,7.82
2022-08-25T11:24:47.312Z,6.65
2022-08-25T11:30:10.080Z,7.50
2022-08-25T11:35:16.391Z,7.50
2022-08-25T11:40:50.044Z,6.85
2022-08-25T11:46:17.756Z,7.13
2022-08-25T11:51:40.667Z,6.55
2022-08-25T11:56:51.073Z,7.95
2022-08-25T12:01:57.153Z,7.22
2022-08-25T12:07:10.701Z,7.68
2022-08-25T12:12:55.229Z,7.25
2022-08-25T12:18:33.967Z,7.07
2022-08-25T12:24:04.412Z,7.15
2022-08-25T12:29:35.204Z,7.60
2022-08-25T12:34:52.978Z,6.55
2022-08-25T12:39:58.779Z,7.18
2022-08-25T12:45:26.526Z,6.93
2022-08-25T12:50:43.276Z,7.45
2022-08-25T12:55:51.816Z,6.50
2022-08-25T13:01:03.633Z,6.60
2022-08-25T13:06:13.186Z,7.03
2022-08-25T13:11:39.800Z,7.20
2022-08-25T13:16:57.648Z,7.43
2022-08-25T13:22:04.008Z,6.85
2022-08-25T13:27:09.735Z,6.80
2022-08-25T13:32:14.835Z,10.40
2022-08-25T13:37:29.578Z,8.55
2022-08-25T13:42:33.053Z,7.65
2022-08-25T13:47:45.262Z,6.38
2022-08-25T13:53:15.683Z,6.88
2022-08-25T13:58:44.644Z,9.02
2022-08-25T14:03:48.572Z,6.85
2022-08-25T14:09:01.562Z,6.85
2022-08-25T14:14:10.311Z,6.50
2022-08-25T14:19:20.315Z,7.05
2022-08-25T14:24:24.559Z,6.47
2022-08-25T14:29:27.438Z,6.70
2022-08-25T14:34:36.827Z,7.30
2022-08-25T14:39:39.577Z,6.90
2022-08-25T14:44:47.188Z,7.25
2022-08-25T14:49:50.302Z,7.25
2022-08-25T14:54:53.459Z,6.30
2022-08-25T14:59:56.764Z,6.57
2022-08-25T15:05:05.974Z,7.47
2022-08-25T15:10:09.845Z,7.30
2022-08-25T15:15:16.768Z,6.85
2022-08-25T15:20:20.704Z,6.90
2022-08-25T15:25:24.550Z,6.57
2022-08-25T15:30:31.279Z,6.63
2022-08-25T15:35:35.312Z,6.28
2022-08-25T15:40:39.599Z,6.53
2022-08-25T15:45:42.510Z,6.35
2022-08-25T15:50:45.319Z,6.25
2022-08-25T15:55:48.327Z,6.40
2022-08-25T16:00:56.474Z,6.22
2022-08-25T16:06:02.879Z,6.80
2022-08-25T16:11:07.284Z,6.72
2022-08-25T16:16:10.096Z,6.32
2022-08-25T16:21:15.678Z,7.65
2022-08-25T16:26:18.887Z,6.60
2022-08-25T16:31:21.692Z,7.30
2022-08-25T16:36:27.119Z,7.95
2022-08-25T16:41:35.756Z,8.25
2022-08-25T16:46:40.683Z,7.47
2022-08-25T16:51:43.765Z,6.88
2022-08-25T16:56:46.926Z,6.63
2022-08-25T17:01:54.418Z,7.10
2022-08-25T17:06:57.442Z,7.13
2022-08-25T17:12:00.943Z,7.13
2022-08-25T17:17:07.212Z,7.50
2022-08-25T17:22:14.275Z,7.10
2022-08-25T17:27:18.612Z,7.07
2022-08-25T17:32:21.442Z,6.55
2022-08-25T17:37:33.122Z,7.85
2022-08-25T17:42:37.114Z,7.65
2022-08-25T17:47:40.013Z,7.70
2022-08-25T17:52:42.757Z,7.63
2022-08-25T17:57:45.437Z,8.68
2022-08-25T18:02:48.588Z,7.72
2022-08-25T18:07:51.384Z,8.90
2022-08-25T18:12:54.076Z,8.88
2022-08-25T18:17:57.441Z,8.35
2022-08-25T18:23:00.437Z,8.85
2022-08-25T18:28:03.473Z,9.07
2022-08-25T18:33:06.568Z,10.13
2022-08-25T18:38:28.183Z,9.05
2022-08-25T18:43:33.863Z,8.65
2022-08-25T18:48:37.231Z,9.35
2022-08-25T18:53:50.465Z,8.80
2022-08-25T18:58:53.886Z,8.57
2022-08-25T19:03:57.336Z,9.73
2022-08-25T19:09:00.046Z,9.18
2022-08-25T19:14:02.826Z,9.32
2022-08-25T19:19:07.859Z,10.50
2022-08-25T19:24:13.137Z,8.65
2022-08-25T19:29:17.606Z,9.32
2022-08-25T19:34:30.345Z,9.60
2022-08-25T19:39:39.063Z,10.23
2022-08-25T19:44:42.568Z,9.40
2022-08-25T19:49:45.541Z,10.50
2022-08-25T19:54:50.110Z,11.03
2022-08-25T19:59:54.868Z,10.40
2022-08-25T20:04:59.980Z,9.73
2022-08-25T20:10:05.246Z,10.27
2022-08-25T20:15:09.738Z,10.93
2022-08-25T20:20:15.828Z,11.70
2022-08-25T20:25:24.834Z,10.80
2022-08-25T20:30:30.205Z,9.90
2022-08-25T20:35:35.875Z,10.60
2022-08-25T20:40:41.808Z,10.70
2022-08-25T20:45:46.244Z,10.70
2022-08-25T20:50:54.391Z,10.33
2022-08-25T20:56:00.644Z,11.00
2022-08-25T21:01:03.783Z,10.80
2022-08-25T21:06:08.932Z,11.17
2022-08-25T21:11:18.084Z,11.37
2022-08-25T21:16:21.682Z,10.93
2022-08-25T21:21:26.242Z,11.83
2022-08-25T21:26:30.933Z,11.90
2022-08-25T21:31:37.123Z,11.73
2022-08-25T21:36:42.396Z,11.77
2022-08-25T21:41:45.733Z,12.47
2022-08-25T21:46:53.944Z,11.87
2022-08-25T21:52:02.421Z,11.77
2022-08-25T21:57:07.753Z,13.07
2022-08-25T22:02:13.331Z,12.97
2022-08-25T22:07:17.163Z,12.73
2022-08-25T22:12:20.342Z,13.03
2022-08-25T22:17:24.478Z,13.20
2022-08-25T22:22:27.529Z,12.50
2022-08-25T22:27:30.472Z,12.37
2022-08-25T22:32:33.324Z,12.50
2022-08-25T22:37:36.907Z,12.30
2022-08-25T22:42:40.260Z,12.30
2022-08-25T22:47:43.532Z,12.27
2022-08-25T22:52:46.677Z,12.43
2022-08-25T22:57:50.691Z,13.30
2022-08-25T23:02:57.581Z,13.23
2022-08-25T23:08:00.272Z,12.67
2022-08-25T23:13:03.262Z,13.17
2022-08-25T23:18:10.212Z,13.77
2022-08-25T23:23:14.083Z,14.73
2022-08-25T23:28:17.022Z,14.03
2022-08-25T23:33:21.623Z,13.23
2022-08-25T23:38:24.403Z,14.17
2022-08-25T23:43:27.476Z,13.37
2022-08-25T23:48:30.908Z,13.53
2022-08-25T23:53:35.454Z,14.03
2022-08-25T23:58:38.212Z,14.43
